Time;durP1;ratioP1;P1;durP2;ratioP2;P2;SDS_P1;SDS_P2;PMS_P1;PMS_P2;Temp;Humidity;BMP_temperature;BMP_pressure;BME280_temperature;BME280_humidity;BME280_pressure;Samples;Min_cycle;Max_cycle;Signal;HPM_P1;HPM_P2
2020/12/13 00:00:43;;;;;;;20.83;18.83;;;5.80;99.90;;;6.48;100.00;96902.53;5248482;28;20738;-81
2020/12/13 00:03:16;;;;;;;19.83;17.90;;;5.80;99.90;;;6.48;100.00;96899.13;5250106;28;20215;-81
2020/12/13 00:05:48;;;;;;;20.93;18.73;;;5.80;99.90;;;6.49;100.00;96901.72;5246256;28;20578;-81
2020/12/13 00:08:21;;;;;;;22.10;19.57;;;5.80;99.90;;;6.46;100.00;96901.56;5249441;28;20207;-81
2020/12/13 00:10:54;;;;;;;19.97;17.97;;;5.80;99.90;;;6.47;100.00;96907.53;5248587;28;20231;-81
2020/12/13 00:13:26;;;;;;;20.37;18.43;;;5.90;99.90;;;6.49;100.00;96916.09;5250138;28;20296;-81
2020/12/13 00:15:59;;;;;;;20.80;18.70;;;5.80;99.90;;;6.49;100.00;96916.09;5249403;28;20200;-81
2020/12/13 00:18:32;;;;;;;20.30;18.20;;;5.80;99.90;;;6.48;100.00;96920.31;5250242;28;20660;-81
2020/12/13 00:21:04;;;;;;;22.90;20.50;;;5.80;99.90;;;6.52;100.00;96916.25;5245177;28;20207;-80
2020/12/13 00:23:37;;;;;;;23.40;21.00;;;5.90;99.90;;;6.51;100.00;96922.13;5233134;28;20209;-81
2020/12/13 00:26:10;;;;;;;25.83;22.40;;;5.80;99.90;;;6.51;100.00;96924.69;5250673;28;20209;-81
2020/12/13 00:28:43;;;;;;;25.07;22.47;;;5.80;99.90;;;6.49;100.00;96921.16;5249663;28;20232;-81
2020/12/13 00:31:16;;;;;;;23.80;21.30;;;5.80;99.90;;;6.49;100.00;96937.28;5250772;28;20224;-81
2020/12/13 00:33:48;;;;;;;21.57;19.40;;;5.70;99.90;;;6.44;100.00;96928.53;5249067;28;20560;-81
2020/12/13 00:36:20;;;;;;;21.97;19.67;;;5.80;99.90;;;6.42;100.00;96934.31;5249842;28;20215;-81
2020/12/13 00:38:53;;;;;;;27.13;22.27;;;5.70;99.90;;;6.39;100.00;96939.22;5248895;28;20692;-81
2020/12/13 00:41:25;;;;;;;22.20;19.67;;;5.70;99.90;;;6.35;100.00;96944.88;5249483;28;20201;-81
2020/12/13 00:43:58;;;;;;;25.53;22.80;;;5.70;99.90;;;6.31;100.00;96942.16;5249471;28;20613;-81
2020/12/13 00:46:39;;;;;;;22.73;20.27;;;5.70;99.90;;;6.29;100.00;96948.81;5250473;28;20195;-79
2020/12/13 00:49:12;;;;;;;21.83;19.30;;;5.60;99.90;;;6.34;100.00;96945.69;5236546;28;20246;-81
2020/12/13 00:51:44;;;;;;;21.80;19.60;;;5.70;99.90;;;6.36;100.00;96947.53;5250015;28;20597;-81
2020/12/13 00:54:17;;;;;;;21.07;18.90;;;5.70;99.90;;;6.37;100.00;96954.34;5250776;28;20200;-81
2020/12/13 00:56:49;;;;;;;21.60;19.40;;;5.70;99.90;;;6.39;100.00;96951.91;5249832;28;20561;-80
2020/12/13 00:59:21;;;;;;;21.43;19.23;;;5.80;99.90;;;6.44;100.00;96955.56;5229600;28;20224;-82
2020/12/13 01:01:53;;;;;;;23.80;21.23;;;5.80;99.90;;;6.48;100.00;96957.50;5250228;28;20203;-81
2020/12/13 01:04:35;;;;;;;22.47;19.43;;;5.80;99.90;;;6.46;100.00;96961.59;5250121;28;20228;-79
2020/12/13 01:07:07;;;;;;;21.77;19.47;;;5.80;99.90;;;6.45;100.00;96959.88;5230960;28;20204;-81
2020/12/13 01:09:40;;;;;;;19.90;17.90;;;5.80;99.90;;;6.45;100.00;96957.31;5240019;28;20217;-80
2020/12/13 01:12:12;;;;;;;19.80;17.70;;;5.80;99.90;;;6.46;100.00;96969.22;5251103;28;20250;-81
2020/12/13 01:14:44;;;;;;;18.07;16.20;;;5.80;99.90;;;6.45;100.00;96962.41;5250602;28;20232;-81
2020/12/13 01:17:16;;;;;;;17.37;15.63;;;5.80;99.90;;;6.45;100.00;96975.09;5251706;28;20202;-81
2020/12/13 01:19:48;;;;;;;18.87;16.90;;;5.80;99.90;;;6.45;100.00;96967.47;5250306;28;20216;-82
2020/12/13 01:22:23;;;;;;;17.37;15.77;;;5.80;99.90;;;6.44;100.00;96976.75;5247518;28;20685;-81
2020/12/13 01:24:55;;;;;;;16.23;14.53;;;5.80;99.90;;;6.46;100.00;96981.91;5249854;28;20662;-82
2020/12/13 01:27:27;;;;;;;17.27;15.50;;;5.80;99.90;;;6.47;100.00;96987.09;5251580;28;20200;-81
2020/12/13 01:29:59;;;;;;;19.03;17.17;;;5.80;99.90;;;6.47;100.00;96991.31;5250953;28;20650;-82
2020/12/13 01:32:37;;;;;;;15.70;14.20;;;5.80;99.90;;;6.46;100.00;96997.13;5251577;28;20185;-81
2020/12/13 01:35:11;;;;;;;17.87;16.00;;;5.80;99.90;;;6.47;100.00;96993.84;5251132;28;20695;-82
2020/12/13 01:37:43;;;;;;;18.20;16.40;;;5.80;99.90;;;6.48;100.00;96996.44;5251616;28;20185;-80
2020/12/13 01:40:16;;;;;;;16.80;15.10;;;5.80;99.90;;;6.49;100.00;97007.47;5248705;28;20228;-80
2020/12/13 01:42:48;;;;;;;17.97;16.17;;;5.90;99.90;;;6.51;100.00;97011.00;5249842;28;20562;-80
2020/12/13 01:45:20;;;;;;;17.43;15.63;;;5.90;99.90;;;6.52;100.00;97008.56;5250619;28;20204;-82
2020/12/13 01:47:52;;;;;;;17.00;15.30;;;5.90;99.90;;;6.52;100.00;97005.13;5249331;28;20199;-83
2020/12/13 01:50:37;;;;;;;16.10;14.50;;;5.90;99.90;;;6.51;100.00;97006.78;5233815;28;20262;-82
2020/12/13 01:53:17;;;;;;;16.80;15.00;;;5.80;99.90;;;6.50;100.00;97014.31;5248045;28;20203;-81
2020/12/13 01:55:52;;;;;;;15.77;14.20;;;5.80;99.90;;;6.49;100.00;97012.53;5247418;28;20192;-82
2020/12/13 01:58:28;;;;;;;18.20;16.40;;;5.80;99.90;;;6.49;100.00;97017.63;5247562;28;20203;-81
2020/12/13 02:01:03;;;;;;;16.57;15.00;;;5.80;99.90;;;6.51;100.00;97016.06;5249091;28;20291;-81
2020/12/13 02:03:45;;;;;;;16.80;15.10;;;5.80;99.90;;;6.49;100.00;97017.63;5230075;28;20211;-82
2020/12/13 02:06:22;;;;;;;15.23;13.63;;;5.80;99.90;;;6.49;100.00;97022.69;5227794;28;20560;-82
2020/12/13 02:08:55;;;;;;;14.90;13.50;;;5.70;99.90;;;6.44;100.00;97024.09;5248182;28;20246;-81
2020/12/13 02:11:31;;;;;;;16.13;14.53;;;5.70;99.90;;;6.44;100.00;97029.16;5249123;28;20673;-81
2020/12/13 02:14:04;;;;;;;16.13;14.43;;;5.70;99.90;;;6.38;100.00;97024.63;5245374;28;20193;-82
2020/12/13 02:16:37;;;;;;;14.80;13.30;;;5.70;99.90;;;6.42;100.00;97038.38;5247936;28;20207;-81
2020/12/13 02:19:09;;;;;;;15.80;14.00;;;5.70;99.90;;;6.42;100.00;97031.63;5248113;28;20224;-81
2020/12/13 02:21:44;;;;;;;15.43;13.87;;;5.80;99.90;;;6.43;100.00;97037.56;5246768;28;20192;-82
2020/12/13 02:24:17;;;;;;;14.60;13.10;;;5.80;99.90;;;6.46;100.00;97040.28;5238794;28;20659;-82
2020/12/13 02:26:49;;;;;;;15.50;13.90;;;5.80;99.90;;;6.46;100.00;97043.69;5252455;28;20232;-82
2020/12/13 02:29:21;;;;;;;15.10;13.60;;;5.80;99.90;;;6.44;100.00;97039.31;5253238;28;20221;-82
2020/12/13 02:31:54;;;;;;;14.97;13.47;;;5.70;99.90;;;6.42;100.00;97038.38;5252962;28;20651;-82
2020/12/13 02:34:26;;;;;;;14.90;13.40;;;5.70;99.90;;;6.43;100.00;97040.97;5251361;28;20759;-81
2020/12/13 02:36:58;;;;;;;15.50;13.93;;;5.70;99.90;;;6.42;100.00;97040.91;5246676;28;20208;-81
2020/12/13 02:39:31;;;;;;;14.23;12.87;;;5.70;99.90;;;6.43;100.00;97042.66;5244409;28;20693;-81
2020/12/13 02:42:04;;;;;;;13.83;12.43;;;5.70;99.90;;;6.42;100.00;97045.97;5245923;28;20201;-82
2020/12/13 02:44:36;;;;;;;15.80;14.33;;;5.70;99.90;;;6.41;100.00;97050.19;5250559;28;20192;-82
2020/12/13 02:47:08;;;;;;;15.40;13.80;;;5.70;99.90;;;6.37;100.00;97047.38;5251663;28;20192;-83
2020/12/13 02:49:42;;;;;;;15.40;13.80;;;5.70;99.90;;;6.42;100.00;97046.84;5248643;28;20240;-82
2020/12/13 02:52:18;;;;;;;13.20;11.63;;;5.60;99.90;;;6.37;100.00;97050.78;5251041;28;20224;-81
2020/12/13 02:54:51;;;;;;;13.50;12.20;;;5.70;99.90;;;6.30;100.00;97054.63;5251387;28;20212;-83
2020/12/13 02:57:23;;;;;;;13.70;12.40;;;5.60;99.90;;;6.31;100.00;97060.56;5251430;28;20197;-83
2020/12/13 02:59:56;;;;;;;13.77;12.43;;;5.60;99.90;;;6.33;100.00;97061.53;5252051;28;20236;-82
2020/12/13 03:02:28;;;;;;;13.77;12.47;;;5.70;99.90;;;6.36;100.00;97063.38;5249232;28;20649;-82
2020/12/13 03:05:00;;;;;;;13.57;12.33;;;5.60;99.90;;;6.36;100.00;97068.47;5250449;28;20203;-83
2020/12/13 03:07:32;;;;;;;14.97;13.40;;;5.70;99.90;;;6.36;100.00;97066.78;5252547;28;20225;-82
2020/12/13 03:10:05;;;;;;;16.30;14.57;;;5.70;99.90;;;6.38;100.00;97057.63;5251268;28;20217;-82
2020/12/13 03:12:37;;;;;;;14.37;12.97;;;5.70;99.90;;;6.40;100.00;97066.19;5250862;28;20220;-82
2020/12/13 03:15:09;;;;;;;14.37;12.87;;;5.70;99.90;;;6.39;100.00;97066.97;5250074;28;20203;-82
2020/12/13 03:17:41;;;;;;;14.80;13.40;;;5.70;99.90;;;6.41;100.00;97069.59;5251628;28;20197;-82
2020/12/13 03:20:13;;;;;;;15.83;14.17;;;5.70;99.90;;;6.42;100.00;97077.31;5250044;28;20228;-82
2020/12/13 03:22:45;;;;;;;15.63;14.07;;;5.70;99.90;;;6.43;100.00;97078.19;5250742;28;20565;-82
2020/12/13 03:25:18;;;;;;;14.97;13.40;;;5.70;99.90;;;6.42;100.00;97081.50;5250850;28;20665;-82
2020/12/13 03:27:50;;;;;;;15.30;13.77;;;5.70;99.90;;;6.40;100.00;97081.41;5250593;28;20197;-82
2020/12/13 03:30:22;;;;;;;17.80;16.03;;;5.70;99.90;;;6.41;100.00;97084.81;5250588;28;20752;-82
2020/12/13 03:32:55;;;;;;;15.83;14.23;;;5.70;99.90;;;6.40;100.00;97088.16;5251434;28;20224;-82
2020/12/13 03:35:27;;;;;;;17.33;15.13;;;5.60;99.90;;;6.39;100.00;97089.81;5249398;28;20209;-82
2020/12/13 03:37:59;;;;;;;15.63;14.03;;;5.60;99.90;;;6.36;100.00;97099.78;5251465;28;20196;-82
2020/12/13 03:40:32;;;;;;;16.50;14.80;;;5.70;99.90;;;6.36;100.00;97104.00;5249607;28;20224;-82
2020/12/13 03:43:04;;;;;;;17.40;15.60;;;5.70;99.90;;;6.36;100.00;97093.84;5257661;28;20265;-82
2020/12/13 03:45:36;;;;;;;17.97;14.90;;;5.60;99.90;;;6.35;100.00;97094.59;5265243;28;20591;-83
2020/12/13 03:48:09;;;;;;;17.13;15.47;;;5.70;99.90;;;6.32;100.00;97096.19;5251443;28;20208;-82
2020/12/13 03:50:41;;;;;;;18.47;16.43;;;5.60;99.90;;;6.35;100.00;97103.09;5250851;28;20205;-81
2020/12/13 03:53:14;;;;;;;16.87;15.07;;;5.60;99.90;;;6.36;100.00;97106.53;5249686;28;20236;-81
2020/12/13 03:55:47;;;;;;;17.73;15.90;;;5.60;99.90;;;6.34;100.00;97097.94;5250091;28;20214;-81
2020/12/13 03:58:19;;;;;;;14.53;13.00;;;5.60;99.90;;;6.27;100.00;97102.66;5255448;28;20291;-81
2020/12/13 04:00:51;;;;;;;14.97;13.47;;;5.60;99.90;;;6.29;100.00;97103.59;5271313;28;20615;-81
2020/12/13 04:03:23;;;;;;;16.67;14.90;;;5.60;99.90;;;6.29;100.00;97103.59;5255533;28;20254;-81
2020/12/13 04:05:55;;;;;;;16.03;14.40;;;5.60;99.90;;;6.28;100.00;97099.31;5270621;28;20207;-81
2020/12/13 04:08:27;;;;;;;16.80;14.70;;;5.60;99.90;;;6.28;100.00;97106.94;5263484;28;20624;-81
2020/12/13 04:11:00;;;;;;;15.67;14.17;;;5.60;99.90;;;6.29;100.00;97106.13;5249465;28;20224;-82
2020/12/13 04:13:32;;;;;;;17.17;14.60;;;5.60;99.90;;;6.32;100.00;97111.41;5250890;28;20295;-82
2020/12/13 04:16:04;;;;;;;14.40;12.90;;;5.60;99.90;;;6.30;100.00;97114.66;5249493;28;20215;-80
2020/12/13 04:18:36;;;;;;;14.37;12.93;;;5.60;99.90;;;6.29;100.00;97126.44;5249842;28;20295;-81
2020/12/13 04:21:08;;;;;;;14.80;13.37;;;5.60;99.90;;;6.31;100.00;97131.63;5248773;28;20203;-82
2020/12/13 04:23:40;;;;;;;13.97;12.57;;;5.60;99.90;;;6.30;100.00;97133.28;5247973;28;20205;-81
2020/12/13 04:26:13;;;;;;;14.37;12.97;;;5.60;99.90;;;6.30;100.00;97142.56;5248721;28;20201;-82
2020/12/13 04:28:45;;;;;;;13.93;12.53;;;5.60;99.90;;;6.28;100.00;97144.13;5248341;28;20217;-82
2020/12/13 04:31:17;;;;;;;12.20;11.00;;;5.60;99.90;;;6.24;100.00;97150.66;5247707;28;20220;-82
2020/12/13 04:33:49;;;;;;;12.47;11.37;;;5.60;99.90;;;6.25;100.00;97149.00;5248183;28;20247;-82
2020/12/13 04:36:21;;;;;;;12.97;11.67;;;5.60;99.90;;;6.24;100.00;97153.22;5246581;28;20200;-82
2020/12/13 04:38:53;;;;;;;13.27;11.97;;;5.50;99.90;;;6.23;100.00;97161.59;5247277;28;20208;-82
2020/12/13 04:41:26;;;;;;;13.07;11.77;;;5.50;99.90;;;6.20;100.00;97163.06;5248313;28;20204;-81
2020/12/13 04:43:58;;;;;;;13.70;12.30;;;5.50;99.90;;;6.24;100.00;97165.03;5248864;28;20196;-81
2020/12/13 04:46:30;;;;;;;13.63;12.40;;;5.50;99.90;;;6.25;100.00;97166.75;5248245;28;20236;-82
2020/12/13 04:49:04;;;;;;;13.33;11.93;;;5.60;99.90;;;6.26;100.00;97166.84;5251122;28;20221;-82
2020/12/13 04:51:41;;;;;;;13.17;11.70;;;5.60;99.90;;;6.27;100.00;97178.78;5248261;28;20694;-82
2020/12/13 04:54:21;;;;;;;12.43;11.27;;;5.60;99.90;;;6.28;100.00;97172.03;5250373;28;20219;-82
2020/12/13 04:56:57;;;;;;;13.57;12.17;;;5.60;99.90;;;6.30;100.00;97167.94;5229750;28;20217;-78
2020/12/13 04:59:30;;;;;;;12.40;11.27;;;5.60;99.90;;;6.28;100.00;97175.44;5249178;28;20289;-82
2020/12/13 05:02:03;;;;;;;12.43;11.23;;;5.60;99.90;;;6.28;100.00;97175.44;5248536;28;20199;-82
2020/12/13 05:04:35;;;;;;;13.00;11.53;;;5.60;99.90;;;6.28;100.00;97172.91;5249805;28;20197;-82
2020/12/13 05:07:08;;;;;;;13.17;11.77;;;5.60;99.90;;;6.29;100.00;97176.31;5249473;28;20192;-82
2020/12/13 05:09:41;;;;;;;13.87;12.20;;;5.60;99.90;;;6.29;100.00;97179.72;5251430;28;20235;-81
2020/12/13 05:12:14;;;;;;;12.23;11.03;;;5.60;99.90;;;6.29;100.00;97177.19;5252752;28;20228;-82
2020/12/13 05:14:47;;;;;;;14.70;12.90;;;5.60;99.90;;;6.30;100.00;97183.16;5252198;28;20593;-82
2020/12/13 05:17:19;;;;;;;15.73;13.87;;;5.60;99.90;;;6.29;100.00;97183.94;5251092;28;20204;-82
2020/12/13 05:19:51;;;;;;;12.80;11.50;;;5.60;99.90;;;6.31;100.00;97185.78;5251996;28;20588;-82
2020/12/13 05:22:23;;;;;;;12.13;10.83;;;5.60;99.90;;;6.28;100.00;97195.75;5250671;28;20687;-82
2020/12/13 05:24:55;;;;;;;10.60;9.60;;;5.60;99.90;;;6.26;100.00;97194.75;5250655;28;20204;-82
2020/12/13 05:27:39;;;;;;;11.97;10.80;;;5.60;99.90;;;6.25;100.00;97187.94;5251144;28;20295;-82
2020/12/13 05:30:11;;;;;;;10.73;9.70;;;5.50;99.90;;;6.27;100.00;97198.19;5232624;28;20217;-82
2020/12/13 05:32:43;;;;;;;12.17;10.97;;;5.50;99.90;;;6.25;100.00;97195.56;5239226;28;20584;-82
2020/12/13 05:35:15;;;;;;;13.00;11.77;;;5.50;99.90;;;6.26;100.00;97197.28;5249083;28;20222;-82
2020/12/13 05:37:47;;;;;;;12.20;10.97;;;5.60;99.90;;;6.24;100.00;97193.81;5247614;28;20196;-82
2020/12/13 05:40:19;;;;;;;13.17;11.87;;;5.50;99.90;;;6.26;100.00;97197.28;5248855;28;20227;-82
2020/12/13 05:43:00;;;;;;;13.63;12.23;;;5.50;99.90;;;6.27;100.00;97198.19;5228558;28;20204;-82
2020/12/13 05:45:50;;;;;;;11.50;10.40;;;5.50;99.90;;;6.26;100.00;97202.38;5227574;28;20665;-82
2020/12/13 05:51:37;;;;;;;13.73;11.13;;;5.50;99.90;;;6.20;100.00;97222.28;5222148;28;20224;-82
2020/12/13 05:54:18;;;;;;;12.53;11.27;;;5.50;99.90;;;6.19;100.00;97224.75;5247639;28;20211;-82
2020/12/13 05:56:54;;;;;;;12.30;11.00;;;5.50;99.90;;;6.16;100.00;97220.34;5248521;28;20204;-83
2020/12/13 05:59:29;;;;;;;13.50;11.93;;;5.50;99.90;;;6.14;100.00;97232.06;5252131;28;20696;-82
2020/12/13 06:02:03;;;;;;;12.30;11.10;;;5.50;99.90;;;6.16;100.00;97230.50;5251998;28;20202;-82
2020/12/13 06:04:42;;;;;;;13.57;12.13;;;5.50;99.90;;;6.21;100.00;97229.13;5252284;28;20273;-83
2020/12/13 06:07:15;;;;;;;13.17;11.77;;;5.60;99.90;;;6.26;100.00;97235.34;5253222;28;20626;-83
2020/12/13 06:09:49;;;;;;;13.30;12.00;;;5.60;99.90;;;6.26;100.00;97232.81;5252645;28;20220;-83
2020/12/13 06:12:29;;;;;;;13.33;12.10;;;5.60;99.90;;;6.29;100.00;97238.09;5253012;28;20228;-82
2020/12/13 06:15:02;;;;;;;12.43;11.13;;;5.60;99.90;;;6.32;100.00;97243.38;5252123;28;20205;-83
2020/12/13 06:17:34;;;;;;;12.60;11.37;;;5.60;99.90;;;6.34;100.00;97245.13;5251674;28;20196;-82
2020/12/13 06:20:06;;;;;;;13.30;11.53;;;5.60;99.90;;;6.36;100.00;97243.56;5252403;28;20247;-83
2020/12/13 06:22:39;;;;;;;13.67;12.37;;;5.60;99.90;;;6.35;100.00;97249.41;5245179;28;20193;-83
2020/12/13 06:25:11;;;;;;;12.70;11.40;;;5.60;99.90;;;6.39;100.00;97251.38;5251464;28;20206;-83
2020/12/13 06:27:43;;;;;;;12.23;11.03;;;5.70;99.90;;;6.36;100.00;97248.66;5251480;28;20222;-83
2020/12/13 06:30:18;;;;;;;13.10;11.47;;;5.70;99.90;;;6.40;100.00;97258.19;5251600;28;20250;-83
2020/12/13 06:32:51;;;;;;;13.00;11.80;;;5.70;99.90;;;6.40;100.00;97255.66;5251130;28;20220;-81
2020/12/13 06:35:23;;;;;;;12.73;11.60;;;5.70;99.90;;;6.40;100.00;97261.63;5251957;28;20228;-83
2020/12/13 06:37:55;;;;;;;11.67;10.60;;;5.70;99.90;;;6.42;100.00;97269.34;5251070;28;20208;-82
2020/12/13 06:40:28;;;;;;;12.30;11.10;;;5.70;99.90;;;6.44;100.00;97268.66;5252073;28;20227;-83
2020/12/13 06:43:08;;;;;;;13.30;12.10;;;5.80;99.90;;;6.48;100.00;97269.72;5250942;28;20203;-82
2020/12/13 06:45:41;;;;;;;13.57;12.20;;;5.80;99.90;;;6.49;100.00;97271.47;5250424;28;20176;-81
2020/12/13 06:48:13;;;;;;;12.67;11.47;;;5.80;99.90;;;6.48;100.00;97274.81;5243915;28;20287;-81
2020/12/13 06:50:45;;;;;;;12.33;11.13;;;5.70;99.90;;;6.47;100.00;97276.47;5250948;28;20204;-81
2020/12/13 06:53:21;;;;;;;11.40;10.30;;;5.70;99.90;;;6.45;100.00;97279.69;5250823;28;20200;-80
2020/12/13 06:56:09;;;;;;;11.43;10.33;;;5.70;99.90;;;6.44;100.00;97283.88;5250252;28;20207;-82
2020/12/13 06:58:46;;;;;;;11.80;10.73;;;5.70;99.90;;;6.47;100.00;97283.22;5251191;28;20311;-82
2020/12/13 07:01:26;;;;;;;12.20;11.00;;;5.80;99.90;;;6.49;100.00;97290.09;5232523;28;20236;-82
2020/12/13 07:03:59;;;;;;;13.47;12.07;;;5.80;99.90;;;6.49;100.00;97289.25;5249649;28;20200;-82
2020/12/13 07:06:43;;;;;;;12.63;11.40;;;5.80;99.90;;;6.48;100.00;97290.91;5250375;28;20211;-82
2020/12/13 07:09:15;;;;;;;12.03;10.87;;;5.70;99.90;;;6.48;100.00;97300.19;5250053;28;20212;-82
2020/12/13 07:11:50;;;;;;;11.50;10.43;;;5.70;99.90;;;6.47;100.00;97301.84;5246999;28;20221;-81
2020/12/13 07:14:24;;;;;;;12.03;10.83;;;5.80;99.90;;;6.50;100.00;97302.03;5249763;28;20656;-80
2020/12/13 07:17:01;;;;;;;10.90;9.90;;;5.80;99.90;;;6.49;100.00;97318.03;5250318;28;20197;-80
2020/12/13 07:19:36;;;;;;;12.40;11.13;;;5.80;99.90;;;6.49;100.00;97317.16;5244645;28;20255;-81
2020/12/13 07:22:11;;;;;;;13.57;12.17;;;5.80;99.90;;;6.51;100.00;97318.16;5246509;28;20280;-82
2020/12/13 07:24:46;;;;;;;12.23;11.03;;;5.70;99.90;;;6.50;100.00;97326.56;5251138;28;20204;-82
2020/12/13 07:27:22;;;;;;;11.93;10.73;;;5.80;99.90;;;6.50;100.00;97324.00;5250581;28;20201;-81
2020/12/13 07:29:55;;;;;;;12.67;11.37;;;5.80;99.90;;;6.49;100.00;97328.19;5250742;28;20226;-82
2020/12/13 07:32:28;;;;;;;12.10;10.90;;;5.80;99.90;;;6.50;100.00;97335.03;5247305;28;20634;-82
2020/12/13 07:35:01;;;;;;;12.63;11.43;;;5.80;99.90;;;6.51;100.00;97344.41;5242481;28;20634;-83
2020/12/13 07:37:34;;;;;;;11.43;10.33;;;5.80;99.90;;;6.53;100.00;97352.13;5230295;28;20198;-83
2020/12/13 07:40:10;;;;;;;12.90;11.60;;;5.90;99.90;;;6.54;100.00;97352.22;5243365;28;20606;-84
2020/12/13 07:42:56;;;;;;;12.57;11.37;;;5.90;99.90;;;6.54;100.00;97356.41;5245800;28;20199;-82
2020/12/13 07:45:29;;;;;;;12.23;11.13;;;5.90;99.90;;;6.55;100.00;97358.16;5249301;28;20579;-81
2020/12/13 07:48:03;;;;;;;12.80;11.60;;;5.80;99.90;;;6.56;100.00;97365.03;5249009;28;20717;-80
2020/12/13 07:50:44;;;;;;;13.53;12.23;;;5.80;99.90;;;6.54;100.00;97366.56;5247768;28;20727;-81
2020/12/13 07:53:26;;;;;;;15.67;14.20;;;5.90;99.90;;;6.61;100.00;97373.81;5228338;28;20573;-81
2020/12/13 07:55:59;;;;;;;14.30;12.97;;;5.80;99.90;;;6.59;100.00;97371.97;5234097;28;20565;-82
2020/12/13 07:58:31;;;;;;;14.47;13.13;;;5.80;99.90;;;6.60;100.00;97374.59;5248400;28;20224;-81
2020/12/13 08:01:10;;;;;;;15.77;14.07;;;5.80;99.90;;;6.59;100.00;97375.38;5246369;28;20720;-82
2020/12/13 08:03:44;;;;;;;15.40;13.90;;;5.80;99.90;;;6.57;100.00;97374.38;5267767;22;21519;-80
2020/12/13 08:06:17;;;;;;;17.10;15.30;;;5.90;99.90;;;6.58;100.00;97383.78;5238049;28;20217;-79
2020/12/13 08:08:49;;;;;;;15.50;13.80;;;5.80;99.90;;;6.66;100.00;97389.34;5248137;28;20216;-78
2020/12/13 08:11:21;;;;;;;14.07;12.77;;;5.80;99.90;;;6.68;100.00;97396.28;5243021;28;20288;-80
2020/12/13 08:13:55;;;;;;;15.70;14.20;;;5.80;99.90;;;6.67;100.00;97389.44;5234294;28;20259;-81
2020/12/13 08:16:28;;;;;;;15.00;13.50;;;5.80;99.90;;;6.63;100.00;97390.00;5240415;28;20222;-78
2020/12/13 08:19:09;;;;;;;13.53;12.23;;;5.80;99.90;;;6.58;100.00;97399.00;5270464;22;20231;-81
2020/12/13 08:21:54;;;;;;;12.77;11.60;;;5.90;99.90;;;6.57;100.00;97396.38;5264415;28;20199;-81
2020/12/13 08:24:26;;;;;;;12.67;11.47;;;5.90;99.90;;;6.58;100.00;97399.00;5255654;28;20192;-81
2020/12/13 08:27:00;;;;;;;11.30;10.10;;;6.00;99.90;;;6.63;100.00;97406.91;5257641;28;20204;-80
2020/12/13 08:29:33;;;;;;;11.83;10.73;;;6.00;99.90;;;6.65;100.00;97411.31;5267590;28;20226;-80
2020/12/13 08:32:24;;;;;;;12.87;11.67;;;6.10;99.90;;;6.70;100.00;97419.25;5260956;28;20638;-81
2020/12/13 08:35:10;;;;;;;12.93;11.73;;;6.10;99.90;;;6.73;100.00;97422.84;5263164;28;20648;-81
2020/12/13 08:37:53;;;;;;;12.83;11.73;;;6.10;99.90;;;6.78;100.00;97428.22;5266093;28;20222;-80
2020/12/13 08:40:37;;;;;;;13.07;11.77;;;6.10;99.90;;;6.79;100.00;97429.13;5251619;28;20228;-80
2020/12/13 08:43:12;;;;;;;15.00;13.60;;;6.10;99.90;;;6.81;100.00;97427.53;5266920;28;20194;-81
2020/12/13 08:45:51;;;;;;;21.77;19.57;;;6.10;99.90;;;6.82;100.00;97435.25;5261698;28;20192;-81
2020/12/13 08:48:28;;;;;;;20.83;18.77;;;6.10;99.90;;;6.82;100.00;97430.19;5251188;28;20210;-80
2020/12/13 08:51:07;;;;;;;20.57;17.17;;;6.10;99.90;;;6.80;100.00;97436.81;5248710;28;20352;-80
2020/12/13 08:53:41;;;;;;;22.50;20.23;;;6.10;99.90;;;6.80;100.00;97448.63;5262854;28;20215;-80
2020/12/13 08:56:13;;;;;;;18.23;16.43;;;6.00;99.90;;;6.77;100.00;97452.72;5261008;28;20250;-80
2020/12/13 08:58:48;;;;;;;18.60;16.73;;;6.10;99.90;;;6.75;100.00;97451.78;5266393;28;20236;-81
2020/12/13 09:01:23;;;;;;;17.70;15.90;;;6.10;99.90;;;6.78;100.00;97456.13;5262667;28;20660;-81
2020/12/13 09:03:56;;;;;;;17.23;15.63;;;6.00;99.90;;;6.77;100.00;97460.34;5258683;28;20195;-81
2020/12/13 09:06:31;;;;;;;14.23;12.93;;;6.10;99.90;;;6.81;100.00;97468.16;5266566;28;20192;-80
2020/12/13 09:09:11;;;;;;;13.90;12.60;;;6.20;99.90;;;6.86;100.00;97466.81;5261952;28;20218;-80
2020/12/13 09:11:43;;;;;;;13.43;12.20;;;6.20;99.90;;;6.88;100.00;97467.78;5258791;28;20221;-80
2020/12/13 09:14:31;;;;;;;12.93;11.83;;;6.20;99.90;;;6.90;100.00;97477.28;5266541;28;21868;-80
2020/12/13 09:17:03;;;;;;;12.07;11.07;;;6.20;99.90;;;6.92;100.00;97484.97;5267252;28;20223;-80
2020/12/13 09:19:35;;;;;;;12.10;10.97;;;6.20;99.90;;;6.96;100.00;97485.28;5260211;28;20233;-80
2020/12/13 09:22:19;;;;;;;13.17;11.97;;;6.30;99.90;;;7.05;100.00;97477.38;5254926;28;20207;-81
2020/12/13 09:24:51;;;;;;;12.10;10.90;;;6.30;99.90;;;7.06;100.00;97479.13;5261911;28;20286;-80
2020/12/13 09:27:23;;;;;;;11.87;10.87;;;6.30;99.90;;;7.09;100.00;97484.41;5265190;28;20218;-80
2020/12/13 09:29:56;;;;;;;10.33;9.37;;;6.40;99.90;;;7.14;100.00;97485.59;5255870;28;20578;-80
2020/12/13 09:32:28;;;;;;;11.63;10.63;;;6.40;99.90;;;7.16;100.00;97489.13;5264238;28;20212;-79
2020/12/13 09:35:03;;;;;;;14.77;13.37;;;6.40;99.90;;;7.07;100.00;97503.78;5263818;28;20652;-80
2020/12/13 09:37:36;;;;;;;14.97;13.50;;;6.40;99.90;;;7.08;100.00;97499.56;5264633;28;20280;-80
2020/12/13 09:40:08;;;;;;;15.00;13.70;;;6.40;99.90;;;7.13;100.00;97498.22;5264595;28;20721;-80
2020/12/13 09:42:41;;;;;;;14.73;13.40;;;6.30;99.90;;;7.06;100.00;97501.13;5265217;28;20199;-80
2020/12/13 09:45:13;;;;;;;16.73;15.10;;;6.30;99.90;;;7.10;100.00;97509.06;5256931;28;20210;-80
2020/12/13 09:47:45;;;;;;;14.67;13.37;;;6.30;99.90;;;7.06;100.00;97507.09;5265006;28;20204;-80
2020/12/13 09:50:17;;;;;;;13.50;12.40;;;6.30;99.90;;;7.06;100.00;97507.09;5258227;28;20228;-80
2020/12/13 09:52:51;;;;;;;13.07;11.77;;;6.30;99.90;;;7.10;100.00;97503.97;5263350;28;20722;-80
2020/12/13 09:55:24;;;;;;;12.30;11.10;;;6.30;99.90;;;7.13;100.00;97509.25;5257981;28;20298;-80
2020/12/13 09:57:57;;;;;;;12.77;11.47;;;6.30;99.90;;;7.13;100.00;97513.47;5266983;28;20584;-80
2020/12/13 10:00:29;;;;;;;11.63;10.53;;;6.40;99.90;;;7.14;100.00;97505.03;5264999;28;20219;-80
2020/12/13 10:03:01;;;;;;;11.27;9.97;;;6.30;99.90;;;7.17;100.00;97506.13;5266043;28;20227;-80
2020/12/13 10:05:38;;;;;;;10.00;9.10;;;6.40;99.90;;;7.15;100.00;97511.88;5264996;28;20207;-80
2020/12/13 10:11:01;;;;;;;10.27;9.33;;;6.40;99.90;;;7.11;100.00;97528.59;5266255;28;20206;-79
2020/12/13 10:13:33;;;;;;;11.23;10.03;;;6.50;99.90;;;7.11;100.00;97515.88;5264865;28;20236;-80
2020/12/13 10:16:10;;;;;;;10.87;9.87;;;6.50;99.90;;;7.16;100.00;97517.06;5249023;28;20593;-81
2020/12/13 10:18:42;;;;;;;12.43;11.33;;;6.50;99.90;;;7.19;100.00;97517.28;5265934;28;20196;-80
2020/12/13 10:21:20;;;;;;;11.13;10.23;;;6.50;99.90;;;7.20;100.00;97516.47;5263051;28;20535;-80
2020/12/13 10:23:54;;;;;;;12.80;11.77;;;6.50;99.90;;;7.26;100.00;97520.19;5265930;28;20226;-81
2020/12/13 10:26:28;;;;;;;15.43;13.93;;;6.60;99.90;;;7.28;100.00;97513.56;5258001;28;20203;-81
2020/12/13 10:29:00;;;;;;;14.30;13.00;;;6.60;99.90;;;7.31;100.00;97516.28;5266625;28;20226;-82
2020/12/13 10:31:35;;;;;;;14.17;12.77;;;6.60;99.90;;;7.38;100.00;97518.44;5266547;28;20668;-82
2020/12/13 10:34:09;;;;;;;14.47;13.07;;;6.60;99.90;;;7.40;100.00;97520.28;5267398;28;20224;-82
2020/12/13 10:36:42;;;;;;;13.80;12.50;;;6.60;99.90;;;7.39;100.00;97512.59;5268320;28;20199;-82
2020/12/13 10:39:19;;;;;;;13.00;11.80;;;6.60;99.90;;;7.40;100.00;97520.28;5249632;28;20227;-82
2020/12/13 10:41:52;;;;;;;13.43;12.23;;;6.70;99.90;;;7.48;100.00;97523.34;5253666;28;20212;-83
2020/12/13 10:44:24;;;;;;;13.90;12.70;;;6.60;99.90;;;7.49;100.00;97520.00;5264765;28;20220;-82
2020/12/13 10:46:57;;;;;;;14.07;12.57;;;6.70;99.90;;;7.53;100.00;97521.09;5254299;28;20430;-83